sensor_id;sensor_type;location;lat;lon;timestamp;pressure;altitude;pressure_sealevel;temperature;humidity
18765;BME280;9511;54.242;12.448;2023-04-07T03:05:14;102024.63;;;-0.30;97.86
18765;BME280;9511;54.242;12.448;2023-04-07T03:07:41;102020.72;;;-0.35;97.56
18765;BME280;9511;54.242;12.448;2023-04-07T03:10:10;102018.00;;;-0.37;98.24
18765;BME280;9511;54.242;12.448;2023-04-07T03:12:38;102022.28;;;-0.37;98.23
18765;BME280;9511;54.242;12.448;2023-04-07T03:15:06;102021.25;;;-0.39;98.67
18765;BME280;9511;54.242;12.448;2023-04-07T03:17:35;102026.56;;;-0.38;98.70
18765;BME280;9511;54.242;12.448;2023-04-07T03:20:05;102030.19;;;-0.36;99.10
18765;BME280;9511;54.242;12.448;2023-04-07T03:22:37;102026.81;;;-0.35;99.14
18765;BME280;9511;54.242;12.448;2023-04-07T03:25:09;102022.16;;;-0.39;99.24
18765;BME280;9511;54.242;12.448;2023-04-07T03:27:37;102026.03;;;-0.44;98.93
18765;BME280;9511;54.242;12.448;2023-04-07T03:30:07;102024.22;;;-0.45;98.83
18765;BME280;9511;54.242;12.448;2023-04-07T03:32:35;102029.66;;;-0.42;99.39
18765;BME280;9511;54.242;12.448;2023-04-07T03:35:02;102026.81;;;-0.45;99.25
18765;BME280;9511;54.242;12.448;2023-04-07T03:37:30;102029.13;;;-0.48;99.14
18765;BME280;9511;54.242;12.448;2023-04-07T03:39:59;102033.28;;;-0.50;98.68
18765;BME280;9511;54.242;12.448;2023-04-07T03:42:31;102037.16;;;-0.55;99.38
18765;BME280;9511;54.242;12.448;2023-04-07T03:45:03;102033.78;;;-0.54;99.20
18765;BME280;9511;54.242;12.448;2023-04-07T03:47:33;102036.84;;;-0.58;99.80
18765;BME280;9511;54.242;12.448;2023-04-07T03:50:03;102042.06;;;-0.58;99.96
18765;BME280;9511;54.242;12.448;2023-04-07T03:52:34;102039.06;;;-0.63;99.56
18765;BME280;9511;54.242;12.448;2023-04-07T03:55:12;102041.50;;;-0.64;100.00
18765;BME280;9511;54.242;12.448;2023-04-07T03:57:40;102048.53;;;-0.63;99.78
18765;BME280;9511;54.242;12.448;2023-04-07T04:00:09;102041.50;;;-0.64;100.00
18765;BME280;9511;54.242;12.448;2023-04-07T04:02:42;102041.50;;;-0.64;100.00
18765;BME280;9511;54.242;12.448;2023-04-07T04:05:15;102044.09;;;-0.64;100.00
18765;BME280;9511;54.242;12.448;2023-04-07T04:07:42;102038.53;;;-0.69;100.00
18765;BME280;9511;54.242;12.448;2023-04-07T04:10:10;102049.81;;;-0.68;100.00
18765;BME280;9511;54.242;12.448;2023-04-07T04:12:43;102047.97;;;-0.69;100.00
18765;BME280;9511;54.242;12.448;2023-04-07T04:15:12;102052.34;;;-0.78;100.00
18765;BME280;9511;54.242;12.448;2023-04-07T04:17:40;102053.53;;;-0.75;100.00
18765;BME280;9511;54.242;12.448;2023-04-07T04:20:09;102045.59;;;-0.76;100.00
18765;BME280;9511;54.242;12.448;2023-04-07T04:22:46;102045.59;;;-0.76;100.00
18765;BME280;9511;54.242;12.448;2023-04-07T04:25:13;102051.88;;;-0.74;100.00
18765;BME280;9511;54.242;12.448;2023-04-07T04:27:47;102052.91;;;-0.72;100.00
18765;BME280;9511;54.242;12.448;2023-04-07T04:30:19;102043.28;;;-0.73;100.00
18765;BME280;9511;54.242;12.448;2023-04-07T04:32:53;102050.31;;;-0.72;100.00
18765;BME280;9511;54.242;12.448;2023-04-07T04:35:28;102058.38;;;-0.69;100.00
18765;BME280;9511;54.242;12.448;2023-04-07T04:38:15;102056.72;;;-0.69;100.00
18765;BME280;9511;54.242;12.448;2023-04-07T04:40:47;102059.16;;;-0.70;100.00
18765;BME280;9511;54.242;12.448;2023-04-07T04:43:19;102059.31;;;-0.69;100.00
18765;BME280;9511;54.242;12.448;2023-04-07T04:45:47;102046.34;;;-0.59;100.00
18765;BME280;9511;54.242;12.448;2023-04-07T04:48:16;102050.75;;;-0.58;100.00
18765;BME280;9511;54.242;12.448;2023-04-07T04:50:43;102051.53;;;-0.59;100.00
18765;BME280;9511;54.242;12.448;2023-04-07T04:53:12;102064.97;;;-0.54;100.00
18765;BME280;9511;54.242;12.448;2023-04-07T04:55:48;102057.28;;;-0.52;100.00
18765;BME280;9511;54.242;12.448;2023-04-07T04:58:22;102049.91;;;-0.48;100.00
18765;BME280;9511;54.242;12.448;2023-04-07T05:00:53;102059.03;;;-0.43;100.00
18765;BME280;9511;54.242;12.448;2023-04-07T05:03:25;102049.53;;;-0.42;100.00
18765;BME280;9511;54.242;12.448;2023-04-07T05:05:53;102055.94;;;-0.39;100.00
18765;BME280;9511;54.242;12.448;2023-04-07T05:08:22;102059.03;;;-0.43;100.00
18765;BME280;9511;54.242;12.448;2023-04-07T05:10:49;102055.41;;;-0.35;100.00
18765;BME280;9511;54.242;12.448;2023-04-07T05:13:22;102057.03;;;-0.27;100.00
18765;BME280;9511;54.242;12.448;2023-04-07T05:15:50;102058.84;;;-0.25;100.00
18765;BME280;9511;54.242;12.448;2023-04-07T05:18:18;102061.22;;;-0.18;100.00
18765;BME280;9511;54.242;12.448;2023-04-07T05:20:47;102060.22;;;-0.10;100.00
18765;BME280;9511;54.242;12.448;2023-04-07T05:23:15;102062.28;;;-0.06;100.00
18765;BME280;9511;54.242;12.448;2023-04-07T05:25:45;102063.91;;;0.02;100.00
18765;BME280;9511;54.242;12.448;2023-04-07T05:28:12;102065.47;;;0.10;100.00
18765;BME280;9511;54.242;12.448;2023-04-07T05:30:41;102064.47;;;0.18;100.00
18765;BME280;9511;54.242;12.448;2023-04-07T05:33:09;102061.63;;;0.25;100.00
18765;BME280;9511;54.242;12.448;2023-04-07T05:35:44;102067.63;;;0.35;100.00
18765;BME280;9511;54.242;12.448;2023-04-07T05:38:12;102065.69;;;0.42;100.00
18765;BME280;9511;54.242;12.448;2023-04-07T05:40:40;102066.09;;;0.47;100.00
18765;BME280;9511;54.242;12.448;2023-04-07T05:43:10;102062.44;;;0.55;100.00
18765;BME280;9511;54.242;12.448;2023-04-07T05:45:38;102061.66;;;0.56;100.00
18765;BME280;9511;54.242;12.448;2023-04-07T05:48:07;102064.25;;;0.56;100.00
18765;BME280;9511;54.242;12.448;2023-04-07T05:50:41;102072.34;;;0.59;100.00
18765;BME280;9511;54.242;12.448;2023-04-07T05:53:12;102073.38;;;0.61;100.00
18765;BME280;9511;54.242;12.448;2023-04-07T05:55:41;102067.63;;;0.55;100.00
18765;BME280;9511;54.242;12.448;2023-04-07T05:58:10;102067.91;;;0.58;100.00
18765;BME280;9511;54.242;12.448;2023-04-07T06:00:40;102075.72;;;0.68;100.00
18765;BME280;9511;54.242;12.448;2023-04-07T06:03:14;102085.34;;;0.79;100.00
18765;BME280;9511;54.242;12.448;2023-04-07T06:05:54;102074.69;;;0.87;100.00
18765;BME280;9511;54.242;12.448;2023-04-07T06:08:22;102074.94;;;1.00;100.00
18765;BME280;9511;54.242;12.448;2023-04-07T06:10:49;102072.06;;;1.07;100.00
18765;BME280;9511;54.242;12.448;2023-04-07T06:13:16;102070.75;;;1.22;100.00
18765;BME280;9511;54.242;12.448;2023-04-07T06:15:44;102069.94;;;1.44;100.00
18765;BME280;9511;54.242;12.448;2023-04-07T06:18:11;102075.84;;;1.63;100.00
18765;BME280;9511;54.242;12.448;2023-04-07T06:20:40;102078.03;;;1.79;100.00
18765;BME280;9511;54.242;12.448;2023-04-07T06:23:07;102072.88;;;1.91;100.00
18765;BME280;9511;54.242;12.448;2023-04-07T06:25:34;102076.69;;;2.06;100.00
18765;BME280;9511;54.242;12.448;2023-04-07T06:28:02;102073.41;;;2.19;100.00
18765;BME280;9511;54.242;12.448;2023-04-07T06:30:29;102076.66;;;2.38;100.00
18765;BME280;9511;54.242;12.448;2023-04-07T06:32:57;102074.22;;;2.51;100.00
18765;BME280;9511;54.242;12.448;2023-04-07T06:35:24;102068.28;;;2.64;99.58
18765;BME280;9511;54.242;12.448;2023-04-07T06:37:54;102076.47;;;2.80;98.76
18765;BME280;9511;54.242;12.448;2023-04-07T06:40:21;102066.06;;;2.92;98.07
18765;BME280;9511;54.242;12.448;2023-04-07T06:42:49;102072.34;;;3.06;97.46
18765;BME280;9511;54.242;12.448;2023-04-07T06:45:24;102074.88;;;3.16;96.46
18765;BME280;9511;54.242;12.448;2023-04-07T06:47:51;102070.31;;;3.25;95.95
18765;BME280;9511;54.242;12.448;2023-04-07T06:50:19;102072.38;;;3.29;94.96
18765;BME280;9511;54.242;12.448;2023-04-07T06:52:47;102080.13;;;3.39;94.24
18765;BME280;9511;54.242;12.448;2023-04-07T06:55:16;102080.44;;;3.44;93.21
18765;BME280;9511;54.242;12.448;2023-04-07T06:57:43;102078.31;;;3.38;92.96
18765;BME280;9511;54.242;12.448;2023-04-07T07:00:11;102082.50;;;3.48;92.61
18765;BME280;9511;54.242;12.448;2023-04-07T07:02:38;102079.78;;;3.46;92.26
18765;BME280;9511;54.242;12.448;2023-04-07T07:05:06;102082.59;;;3.50;91.78
18765;BME280;9511;54.242;12.448;2023-04-07T07:07:33;102078.06;;;3.59;91.60
18765;BME280;9511;54.242;12.448;2023-04-07T07:10:00;102089.78;;;3.64;91.44
18765;BME280;9511;54.242;12.448;2023-04-07T07:12:29;102094.91;;;3.74;91.74
18765;BME280;9511;54.242;12.448;2023-04-07T07:14:57;102096.03;;;3.89;91.68
18765;BME280;9511;54.242;12.448;2023-04-07T07:17:24;102090.53;;;4.10;91.34
18765;BME280;9511;54.242;12.448;2023-04-07T07:19:51;102089.34;;;4.30;91.23
18765;BME280;9511;54.242;12.448;2023-04-07T07:22:19;102084.06;;;4.41;90.37
18765;BME280;9511;54.242;12.448;2023-04-07T07:24:46;102094.97;;;4.59;89.52
18765;BME280;9511;54.242;12.448;2023-04-07T07:27:14;102095.69;;;4.70;89.54
18765;BME280;9511;54.242;12.448;2023-04-07T07:29:42;102085.84;;;4.79;88.60
18765;BME280;9511;54.242;12.448;2023-04-07T07:32:10;102088.47;;;4.79;87.79
18765;BME280;9511;54.242;12.448;2023-04-07T07:34:37;102096.44;;;4.80;87.15
18765;BME280;9511;54.242;12.448;2023-04-07T07:37:04;102091.63;;;4.87;86.95
18765;BME280;9511;54.242;12.448;2023-04-07T07:39:31;102094.84;;;4.83;86.82
18765;BME280;9511;54.242;12.448;2023-04-07T07:41:59;102101.97;;;4.72;86.27
18765;BME280;9511;54.242;12.448;2023-04-07T07:44:26;102102.88;;;4.72;86.02
18765;BME280;9511;54.242;12.448;2023-04-07T07:46:55;102104.91;;;4.76;85.81
18765;BME280;9511;54.242;12.448;2023-04-07T07:49:22;102104.16;;;4.91;85.90
18765;BME280;9511;54.242;12.448;2023-04-07T07:51:49;102107.66;;;4.91;85.27
18765;BME280;9511;54.242;12.448;2023-04-07T07:54:17;102108.91;;;4.96;84.79
18765;BME280;9511;54.242;12.448;2023-04-07T07:56:44;102113.56;;;5.00;84.95
18765;BME280;9511;54.242;12.448;2023-04-07T07:59:11;102107.50;;;5.01;84.99
18765;BME280;9511;54.242;12.448;2023-04-07T08:01:38;102110.16;;;5.15;84.87
18765;BME280;9511;54.242;12.448;2023-04-07T08:04:07;102108.56;;;5.17;84.11
18765;BME280;9511;54.242;12.448;2023-04-07T08:06:34;102114.78;;;5.05;83.38
18765;BME280;9511;54.242;12.448;2023-04-07T08:09:02;102113.88;;;5.05;83.64
18765;BME280;9511;54.242;12.448;2023-04-07T08:11:31;102115.53;;;4.91;83.88
18765;BME280;9511;54.242;12.448;2023-04-07T08:13:58;102119.66;;;5.13;84.01
18765;BME280;9511;54.242;12.448;2023-04-07T08:16:25;102108.34;;;5.14;83.26
18765;BME280;9511;54.242;12.448;2023-04-07T08:18:53;102121.69;;;5.17;83.18
18765;BME280;9511;54.242;12.448;2023-04-07T08:21:21;102113.91;;;5.18;82.91
18765;BME280;9511;54.242;12.448;2023-04-07T08:23:49;102114.66;;;5.29;82.89
18765;BME280;9511;54.242;12.448;2023-04-07T08:26:16;102105.56;;;5.37;82.81
18765;BME280;9511;54.242;12.448;2023-04-07T08:28:43;102115.88;;;5.34;82.14
18765;BME280;9511;54.242;12.448;2023-04-07T08:31:10;102113.66;;;5.53;82.12
18765;BME280;9511;54.242;12.448;2023-04-07T08:33:38;102114.66;;;5.55;81.75
18765;BME280;9511;54.242;12.448;2023-04-07T08:36:05;102119.06;;;5.68;81.14
18765;BME280;9511;54.242;12.448;2023-04-07T08:38:34;102120.34;;;5.88;81.03
18765;BME280;9511;54.242;12.448;2023-04-07T08:41:03;102118.72;;;5.77;80.38
18765;BME280;9511;54.242;12.448;2023-04-07T08:43:34;102120.84;;;5.82;80.19
18765;BME280;9511;54.242;12.448;2023-04-07T08:46:03;102120.84;;;5.69;79.66
18765;BME280;9511;54.242;12.448;2023-04-07T08:48:31;102115.31;;;5.65;79.25
18765;BME280;9511;54.242;12.448;2023-04-07T08:51:04;102122.59;;;5.69;78.71
18765;BME280;9511;54.242;12.448;2023-04-07T08:53:37;102119.22;;;5.84;78.95
18765;BME280;9511;54.242;12.448;2023-04-07T08:56:07;102118.63;;;5.89;78.80
18765;BME280;9511;54.242;12.448;2023-04-07T08:58:35;102122.59;;;5.95;78.97
18765;BME280;9511;54.242;12.448;2023-04-07T09:01:03;102106.22;;;6.12;78.91
18765;BME280;9511;54.242;12.448;2023-04-07T09:03:32;102111.34;;;6.24;78.32
18765;BME280;9511;54.242;12.448;2023-04-07T09:06:00;102111.94;;;6.33;77.80
18765;BME280;9511;54.242;12.448;2023-04-07T09:08:27;102114.41;;;6.17;76.67
18765;BME280;9511;54.242;12.448;2023-04-07T09:10:56;102111.47;;;6.12;76.74
18765;BME280;9511;54.242;12.448;2023-04-07T09:13:24;102120.66;;;6.06;76.63
18765;BME280;9511;54.242;12.448;2023-04-07T09:15:51;102115.31;;;6.04;76.63
18765;BME280;9511;54.242;12.448;2023-04-07T09:18:18;102126.34;;;5.99;76.62
18765;BME280;9511;54.242;12.448;2023-04-07T09:20:56;102122.91;;;6.00;76.98
18765;BME280;9511;54.242;12.448;2023-04-07T09:23:28;102118.13;;;5.81;76.53
18765;BME280;9511;54.242;12.448;2023-04-07T09:25:58;102129.06;;;5.74;76.71
18765;BME280;9511;54.242;12.448;2023-04-07T09:28:40;102124.72;;;5.74;77.23
18765;BME280;9511;54.242;12.448;2023-04-07T09:31:07;102121.34;;;5.77;77.96
18765;BME280;9511;54.242;12.448;2023-04-07T09:33:34;102126.72;;;5.65;78.16
18765;BME280;9511;54.242;12.448;2023-04-07T09:36:02;102114.97;;;5.47;77.56
18765;BME280;9511;54.242;12.448;2023-04-07T09:38:35;102119.59;;;5.38;77.78
18765;BME280;9511;54.242;12.448;2023-04-07T09:41:09;102118.28;;;5.31;78.74
18765;BME280;9511;54.242;12.448;2023-04-07T09:43:37;102118.56;;;5.22;78.64
18765;BME280;9511;54.242;12.448;2023-04-07T09:46:09;102117.44;;;5.19;79.55
18765;BME280;9511;54.242;12.448;2023-04-07T09:48:37;102119.06;;;5.17;80.30
18765;BME280;9511;54.242;12.448;2023-04-07T09:51:06;102116.38;;;5.03;80.78
18765;BME280;9511;54.242;12.448;2023-04-07T09:53:41;102119.25;;;5.20;82.05
18765;BME280;9511;54.242;12.448;2023-04-07T09:56:10;102122.69;;;5.19;81.16
18765;BME280;9511;54.242;12.448;2023-04-07T09:58:39;102113.56;;;5.00;80.81
18765;BME280;9511;54.242;12.448;2023-04-07T10:01:08;102124.13;;;4.89;80.65
18765;BME280;9511;54.242;12.448;2023-04-07T10:03:37;102121.75;;;4.80;80.79
18765;BME280;9511;54.242;12.448;2023-04-07T10:06:05;102124.69;;;4.85;81.10
18765;BME280;9511;54.242;12.448;2023-04-07T10:08:34;102122.78;;;4.82;81.31
18765;BME280;9511;54.242;12.448;2023-04-07T10:11:03;102118.75;;;4.87;81.34
18765;BME280;9511;54.242;12.448;2023-04-07T10:13:34;102119.63;;;4.99;81.42
18765;BME280;9511;54.242;12.448;2023-04-07T10:16:03;102124.06;;;5.00;81.24
18765;BME280;9511;54.242;12.448;2023-04-07T10:18:31;102118.91;;;5.02;81.75
18765;BME280;9511;54.242;12.448;2023-04-07T10:21:00;102125.88;;;5.01;81.80
18765;BME280;9511;54.242;12.448;2023-04-07T10:23:36;102120.53;;;5.00;82.15
18765;BME280;9511;54.242;12.448;2023-04-07T10:26:06;102121.44;;;5.00;82.15
18765;BME280;9511;54.242;12.448;2023-04-07T10:28:37;102112.47;;;5.10;82.33
18765;BME280;9511;54.242;12.448;2023-04-07T10:31:07;102114.72;;;5.17;82.64
18765;BME280;9511;54.242;12.448;2023-04-07T10:33:45;102121.69;;;5.17;82.51
18765;BME280;9511;54.242;12.448;2023-04-07T10:36:13;102118.03;;;5.15;82.51
18765;BME280;9511;54.242;12.448;2023-04-07T10:38:40;102120.66;;;5.15;82.99
18765;BME280;9511;54.242;12.448;2023-04-07T10:41:33;102123.41;;;5.16;83.31
18765;BME280;9511;54.242;12.448;2023-04-07T10:44:03;102113.88;;;5.05;83.13
18765;BME280;9511;54.242;12.448;2023-04-07T10:47:03;102126.22;;;5.19;83.59
18765;BME280;9511;54.242;12.448;2023-04-07T10:49:32;102115.63;;;5.18;84.14
18765;BME280;9511;54.242;12.448;2023-04-07T10:52:21;102112.03;;;5.29;84.06
18765;BME280;9511;54.242;12.448;2023-04-07T10:55:33;102105.38;;;5.34;84.46
18765;BME280;9511;54.242;12.448;2023-04-07T10:58:15;102112.84;;;5.28;85.15
18765;BME280;9511;54.242;12.448;2023-04-07T11:01:16;102121.63;;;5.28;86.07
18765;BME280;9511;54.242;12.448;2023-04-07T11:03:57;102115.06;;;5.22;87.04
18765;BME280;9511;54.242;12.448;2023-04-07T11:06:24;102124.81;;;5.11;87.75
18765;BME280;9511;54.242;12.448;2023-04-07T11:08:53;102120.03;;;5.05;88.60
18765;BME280;9511;54.242;12.448;2023-04-07T11:11:38;102117.19;;;5.02;89.26
18765;BME280;9511;54.242;12.448;2023-04-07T11:14:07;102127.25;;;4.96;89.90
18765;BME280;9511;54.242;12.448;2023-04-07T11:16:40;102129.88;;;4.96;90.87
18765;BME280;9511;54.242;12.448;2023-04-07T11:19:08;102129.97;;;4.98;91.52
18765;BME280;9511;54.242;12.448;2023-04-07T11:21:36;102133.03;;;5.04;92.34
18765;BME280;9511;54.242;12.448;2023-04-07T11:24:03;102123.03;;;4.98;92.57
18765;BME280;9511;54.242;12.448;2023-04-07T11:26:36;102131.69;;;4.97;93.37
18765;BME280;9511;54.242;12.448;2023-04-07T11:29:04;102136.63;;;4.93;94.08
18765;BME280;9511;54.242;12.448;2023-04-07T11:31:33;102131.41;;;4.81;94.11
18765;BME280;9511;54.242;12.448;2023-04-07T11:34:03;102135.59;;;4.66;94.97
18765;BME280;9511;54.242;12.448;2023-04-07T11:36:31;102140.63;;;4.63;95.42
18765;BME280;9511;54.242;12.448;2023-04-07T11:39:00;102133.66;;;4.63;96.49
18765;BME280;9511;54.242;12.448;2023-04-07T11:41:29;102134.38;;;4.61;96.43
18765;BME280;9511;54.242;12.448;2023-04-07T11:44:08;102132.09;;;4.65;97.04
18765;BME280;9511;54.242;12.448;2023-04-07T11:46:36;102133.19;;;4.69;97.49
18765;BME280;9511;54.242;12.448;2023-04-07T11:49:13;102137.63;;;4.70;97.83
18765;BME280;9511;54.242;12.448;2023-04-07T11:51:42;102128.81;;;4.81;98.85
18765;BME280;9511;54.242;12.448;2023-04-07T11:54:10;102127.31;;;4.85;98.75
18765;BME280;9511;54.242;12.448;2023-04-07T11:56:42;102132.47;;;4.83;98.78
18765;BME280;9511;54.242;12.448;2023-04-07T11:59:18;102130.41;;;4.79;98.84
18765;BME280;9511;54.242;12.448;2023-04-07T12:01:48;102129.28;;;4.75;99.03
18765;BME280;9511;54.242;12.448;2023-04-07T12:04:17;102132.94;;;4.77;99.63
18765;BME280;9511;54.242;12.448;2023-04-07T12:06:46;102131.13;;;4.76;99.14
18765;BME280;9511;54.242;12.448;2023-04-07T12:09:28;102133.56;;;4.87;99.51
18765;BME280;9511;54.242;12.448;2023-04-07T12:11:56;102132.88;;;4.89;99.56
18765;BME280;9511;54.242;12.448;2023-04-07T12:14:24;102134.28;;;4.84;99.76
18765;BME280;9511;54.242;12.448;2023-04-07T12:16:52;102130.22;;;4.76;99.63
18765;BME280;9511;54.242;12.448;2023-04-07T12:19:22;102127.47;;;4.74;99.52
18765;BME280;9511;54.242;12.448;2023-04-07T12:21:50;102139.91;;;4.77;99.59
18765;BME280;9511;54.242;12.448;2023-04-07T12:24:17;102130.41;;;4.79;100.00
18765;BME280;9511;54.242;12.448;2023-04-07T12:26:45;102130.41;;;4.79;99.92
18765;BME280;9511;54.242;12.448;2023-04-07T12:29:13;102138.28;;;4.79;100.00
18765;BME280;9511;54.242;12.448;2023-04-07T12:31:40;102131.81;;;4.74;99.54
18765;BME280;9511;54.242;12.448;2023-04-07T12:34:08;102135.47;;;4.76;99.80
18765;BME280;9511;54.242;12.448;2023-04-07T12:36:37;102132.22;;;4.80;99.78
18765;BME280;9511;54.242;12.448;2023-04-07T12:39:04;102121.97;;;4.83;99.35
18765;BME280;9511;54.242;12.448;2023-04-07T12:41:31;102129.22;;;4.87;99.46
18765;BME280;9511;54.242;12.448;2023-04-07T12:43:59;102125.59;;;4.85;99.49
18765;BME280;9511;54.242;12.448;2023-04-07T12:46:26;102128.81;;;4.81;99.05
18765;BME280;9511;54.242;12.448;2023-04-07T12:48:53;102119.94;;;4.79;98.49
18765;BME280;9511;54.242;12.448;2023-04-07T12:51:21;102120.75;;;4.78;98.32
18765;BME280;9511;54.242;12.448;2023-04-07T12:53:50;102121.66;;;4.78;98.20
18765;BME280;9511;54.242;12.448;2023-04-07T12:56:19;102128.38;;;4.75;97.84
18765;BME280;9511;54.242;12.448;2023-04-07T12:58:47;102126.78;;;4.77;98.12
18765;BME280;9511;54.242;12.448;2023-04-07T13:01:14;102122.22;;;4.74;98.15
18765;BME280;9511;54.242;12.448;2023-04-07T13:03:42;102119.34;;;4.83;98.25
18765;BME280;9511;54.242;12.448;2023-04-07T13:06:09;102114.91;;;4.82;98.08
18765;BME280;9511;54.242;12.448;2023-04-07T13:08:37;102114.13;;;4.83;98.20
18765;BME280;9511;54.242;12.448;2023-04-07T13:11:06;102119.94;;;4.79;98.07
18765;BME280;9511;54.242;12.448;2023-04-07T13:13:33;102108.75;;;4.82;98.01
18765;BME280;9511;54.242;12.448;2023-04-07T13:16:01;102113.19;;;4.83;98.49
18765;BME280;9511;54.242;12.448;2023-04-07T13:18:28;102111.69;;;4.86;98.34
18765;BME280;9511;54.242;12.448;2023-04-07T13:20:55;102120.34;;;4.85;98.55
18765;BME280;9511;54.242;12.448;2023-04-07T13:23:23;102112.44;;;4.72;98.83
18765;BME280;9511;54.242;12.448;2023-04-07T13:25:50;102121.31;;;4.74;99.16
18765;BME280;9511;54.242;12.448;2023-04-07T13:28:19;102113.84;;;4.67;99.13
18765;BME280;9511;54.242;12.448;2023-04-07T13:30:46;102124.41;;;4.68;99.37
18765;BME280;9511;54.242;12.448;2023-04-07T13:33:14;102112.69;;;4.63;99.85
18765;BME280;9511;54.242;12.448;2023-04-07T13:35:41;102121.47;;;4.64;99.92
18765;BME280;9511;54.242;12.448;2023-04-07T13:38:08;102120.47;;;4.62;100.00
18765;BME280;9511;54.242;12.448;2023-04-07T13:40:36;102115.66;;;4.68;100.00
18765;BME280;9511;54.242;12.448;2023-04-07T13:43:03;102117.25;;;4.66;100.00
18765;BME280;9511;54.242;12.448;2023-04-07T13:45:34;102126.72;;;4.64;100.00
18765;BME280;9511;54.242;12.448;2023-04-07T13:48:01;102122.06;;;4.60;100.00
18765;BME280;9511;54.242;12.448;2023-04-07T13:50:28;102122.50;;;4.66;100.00
18765;BME280;9511;54.242;12.448;2023-04-07T13:52:56;102126.13;;;4.68;100.00
18765;BME280;9511;54.242;12.448;2023-04-07T13:55:23;102120.69;;;4.65;100.00
18765;BME280;9511;54.242;12.448;2023-04-07T13:57:51;102124.25;;;4.53;100.00
18765;BME280;9511;54.242;12.448;2023-04-07T14:00:18;102125.03;;;4.52;100.00
18765;BME280;9511;54.242;12.448;2023-04-07T14:02:47;102117.50;;;4.57;100.00
18765;BME280;9511;54.242;12.448;2023-04-07T14:05:15;102116.59;;;4.57;100.00
18765;BME280;9511;54.242;12.448;2023-04-07T14:07:42;102118.22;;;4.55;100.00
18765;BME280;9511;54.242;12.448;2023-04-07T14:10:09;102125.03;;;4.52;100.00
18765;BME280;9511;54.242;12.448;2023-04-07T14:12:37;102120.03;;;4.56;100.00
18765;BME280;9511;54.242;12.448;2023-04-07T14:15:05;102117.41;;;4.56;100.00
18765;BME280;9511;54.242;12.448;2023-04-07T14:17:33;102117.75;;;4.60;100.00
18765;BME280;9511;54.242;12.448;2023-04-07T14:20:02;102118.41;;;4.58;100.00
18765;BME280;9511;54.242;12.448;2023-04-07T14:22:29;102118.66;;;4.61;100.00
18765;BME280;9511;54.242;12.448;2023-04-07T14:24:56;102110.25;;;4.53;100.00
18765;BME280;9511;54.242;12.448;2023-04-07T14:27:24;102119.31;;;4.58;100.00
18765;BME280;9511;54.242;12.448;2023-04-07T14:29:51;102121.28;;;4.61;100.00
18765;BME280;9511;54.242;12.448;2023-04-07T14:32:21;102118.59;;;4.47;100.00
18765;BME280;9511;54.242;12.448;2023-04-07T14:34:48;102115.50;;;4.53;100.00
18765;BME280;9511;54.242;12.448;2023-04-07T14:37:17;102120.72;;;4.53;100.00
18765;BME280;9511;54.242;12.448;2023-04-07T14:39:49;102121.66;;;4.53;100.00
18765;BME280;9511;54.242;12.448;2023-04-07T14:42:16;102111.16;;;4.53;100.00
18765;BME280;9511;54.242;12.448;2023-04-07T14:44:43;102108.63;;;4.55;100.00
18765;BME280;9511;54.242;12.448;2023-04-07T14:47:10;102113.66;;;4.52;100.00
18765;BME280;9511;54.242;12.448;2023-04-07T14:49:38;102119.22;;;4.57;100.00
18765;BME280;9511;54.242;12.448;2023-04-07T14:52:05;102120.84;;;4.55;100.00
18765;BME280;9511;54.242;12.448;2023-04-07T14:54:34;102113.66;;;4.52;100.00
18765;BME280;9511;54.242;12.448;2023-04-07T14:57:01;102128.25;;;4.48;100.00
18765;BME280;9511;54.242;12.448;2023-04-07T14:59:29;102129.41;;;4.40;100.00
18765;BME280;9511;54.242;12.448;2023-04-07T15:01:56;102126.91;;;4.42;100.00
18765;BME280;9511;54.242;12.448;2023-04-07T15:04:23;102130.44;;;4.42;100.00
18765;BME280;9511;54.242;12.448;2023-04-07T15:06:50;102123.63;;;4.33;100.00
18765;BME280;9511;54.242;12.448;2023-04-07T15:09:18;102134.00;;;4.31;100.00
18765;BME280;9511;54.242;12.448;2023-04-07T15:11:46;102121.44;;;4.39;100.00
18765;BME280;9511;54.242;12.448;2023-04-07T15:14:14;102125.44;;;4.34;100.00
18765;BME280;9511;54.242;12.448;2023-04-07T15:16:41;102122.16;;;4.36;100.00
18765;BME280;9511;54.242;12.448;2023-04-07T15:19:09;102121.91;;;4.33;100.00
18765;BME280;9511;54.242;12.448;2023-04-07T15:21:37;102123.72;;;4.34;100.00
18765;BME280;9511;54.242;12.448;2023-04-07T15:24:04;102122.81;;;4.34;100.00
18765;BME280;9511;54.242;12.448;2023-04-07T15:26:31;102124.00;;;4.25;100.00
18765;BME280;9511;54.242;12.448;2023-04-07T15:29:00;102130.13;;;4.26;100.00
18765;BME280;9511;54.242;12.448;2023-04-07T15:31:28;102130.34;;;4.29;100.00
18765;BME280;9511;54.242;12.448;2023-04-07T15:33:55;102128.31;;;4.25;100.00
18765;BME280;9511;54.242;12.448;2023-04-07T15:36:22;102131.28;;;4.18;100.00
18765;BME280;9511;54.242;12.448;2023-04-07T15:38:50;102126.63;;;4.14;100.00
18765;BME280;9511;54.242;12.448;2023-04-07T15:41:18;102121.50;;;4.15;100.00
18765;BME280;9511;54.242;12.448;2023-04-07T15:43:45;102123.78;;;4.11;100.00
18765;BME280;9511;54.242;12.448;2023-04-07T15:46:14;102127.19;;;4.10;100.00
18765;BME280;9511;54.242;12.448;2023-04-07T15:48:41;102125.97;;;4.41;100.00
18765;BME280;9511;54.242;12.448;2023-04-07T15:51:09;102124.78;;;4.86;100.00
18765;BME280;9511;54.242;12.448;2023-04-07T15:53:36;102124.75;;;4.73;100.00
18765;BME280;9511;54.242;12.448;2023-04-07T15:56:04;102125.84;;;4.88;100.00
18765;BME280;9511;54.242;12.448;2023-04-07T15:58:31;102122.28;;;5.13;100.00
18765;BME280;9511;54.242;12.448;2023-04-07T16:00:59;102113.41;;;5.11;100.00
18765;BME280;9511;54.242;12.448;2023-04-07T16:03:27;102114.09;;;5.21;100.00
18765;BME280;9511;54.242;12.448;2023-04-07T16:05:57;102119.13;;;5.05;100.00
18765;BME280;9511;54.242;12.448;2023-04-07T16:08:24;102118.16;;;5.16;100.00
18765;BME280;9511;54.242;12.448;2023-04-07T16:10:52;102116.69;;;5.46;100.00